Back to Top

Language: 

My Weather Underground Personal Weather Station Historical Data with Graphs...

Delerius Weather Station Historical Data
Daily Summary for January 5, 2018 Units:  Both    English   Metric
« Previous Day
Next Day »
Daily Weekly Monthly Yearly Custom
  High: Low: Average:
Temperature: 41.5 °F /  5.3 °C 34.2 °F /  1.2 °C 38.4 °F /  3.6 °C
Dew Point: 38.9 °F /  3.8 °C 32.3 °F /  0.2 °C 36.1 °F /  2.3 °C
Humidity: 96 % 88 % 92 %
Wind Speed: 8.0 mph /  12.9 km/h - 2.2 mph /  3.5 km/h
Wind Gust: 14.0 mph /  22.5 km/h - -
Wind:- - West
Pressure: 29.54 in /  1000.2 hPa 29.22 in /  989.4 hPa -
Precipitation: 0.00 in /  0 mm    
Historical Graphs
 
 
Tabular Data for January 5, 2018
Time Temperature Dew Point Pressure Wind Wind Speed Wind Gust Humidity Rainfall Rate (Hourly) solar Conditions
00:01 40.6 °F /  4.8 °C 37.4 °F /  3 °C 29.25 in /  990.4 hPa West 7.0 mph /  11.3 km/h 10.0 mph /  16.1 km/h 88 % 0.00 in /  0 mm 0 W/m2
00:06 40.6 °F /  4.8 °C 37.4 °F /  3 °C 29.25 in /  990.4 hPa West 6.0 mph /  9.7 km/h 10.0 mph /  16.1 km/h 88 % 0.00 in /  0 mm 0 W/m2
00:11 40.5 °F /  4.7 °C 37.2 °F /  2.9 °C 29.25 in /  990.4 hPa West 6.0 mph /  9.7 km/h 9.0 mph /  14.5 km/h 88 % 0.00 in /  0 mm 0 W/m2
00:16 40.3 °F /  4.6 °C 37.0 °F /  2.8 °C 29.25 in /  990.4 hPa West 7.0 mph /  11.3 km/h 10.0 mph /  16.1 km/h 88 % 0.00 in /  0 mm 0 W/m2
00:19 40.3 °F /  4.6 °C 37.0 °F /  2.8 °C 29.25 in /  990.4 hPa West 8.0 mph /  12.9 km/h 13.0 mph /  20.9 km/h 88 % 0.00 in /  0 mm 0 W/m2
00:24 40.1 °F /  4.5 °C 36.8 °F /  2.7 °C 29.25 in /  990.4 hPa West 8.0 mph /  12.9 km/h 12.0 mph /  19.3 km/h 88 % 0.00 in /  0 mm 0 W/m2
00:29 40.1 °F /  4.5 °C 36.8 °F /  2.7 °C 29.25 in /  990.4 hPa West 7.0 mph /  11.3 km/h 10.0 mph /  16.1 km/h 88 % 0.00 in /  0 mm 0 W/m2
00:31 40.1 °F /  4.5 °C 36.8 °F /  2.7 °C 29.25 in /  990.4 hPa West 6.0 mph /  9.7 km/h 9.0 mph /  14.5 km/h 88 % 0.00 in /  0 mm 0 W/m2
00:37 39.9 °F /  4.4 °C 36.7 °F /  2.6 °C 29.25 in /  990.4 hPa West 4.0 mph /  6.4 km/h 7.0 mph /  11.3 km/h 88 % 0.00 in /  0 mm 0 W/m2
00:38 39.9 °F /  4.4 °C 36.7 °F /  2.6 °C 29.25 in /  990.4 hPa West 5.0 mph /  8 km/h 9.0 mph /  14.5 km/h 88 % 0.00 in /  0 mm 0 W/m2
00:43 39.7 °F /  4.3 °C 36.5 °F /  2.5 °C 29.25 in /  990.4 hPa West 8.0 mph /  12.9 km/h 11.0 mph /  17.7 km/h 88 % 0.00 in /  0 mm 0 W/m2
00:44 39.7 °F /  4.3 °C 36.5 °F /  2.5 °C 29.25 in /  990.4 hPa West 8.0 mph /  12.9 km/h 14.0 mph /  22.5 km/h 88 % 0.00 in /  0 mm 0 W/m2
00:48 39.7 °F /  4.3 °C 36.5 °F /  2.5 °C 29.25 in /  990.4 hPa West 4.0 mph /  6.4 km/h 8.0 mph /  12.9 km/h 88 % 0.00 in /  0 mm 0 W/m2
00:50 39.7 °F /  4.3 °C 36.5 °F /  2.5 °C 29.25 in /  990.4 hPa West 4.0 mph /  6.4 km/h 8.0 mph /  12.9 km/h 88 % 0.00 in /  0 mm 0 W/m2
00:53 39.6 °F /  4.2 °C 36.3 °F /  2.4 °C 29.25 in /  990.4 hPa West 6.0 mph /  9.7 km/h 8.0 mph /  12.9 km/h 88 % 0.00 in /  0 mm 0 W/m2
00:58 39.4 °F /  4.1 °C 36.1 °F /  2.3 °C 29.24 in /  990.1 hPa West 7.0 mph /  11.3 km/h 10.0 mph /  16.1 km/h 88 % 0.00 in /  0 mm 0 W/m2
01:03 39.4 °F /  4.1 °C 36.1 °F /  2.3 °C 29.24 in /  990.1 hPa WSW 8.0 mph /  12.9 km/h 11.0 mph /  17.7 km/h 88 % 0.00 in /  0 mm 0 W/m2
01:08 39.4 °F /  4.1 °C 36.1 °F /  2.3 °C 29.24 in /  990.1 hPa West 7.0 mph /  11.3 km/h 13.0 mph /  20.9 km/h 88 % 0.00 in /  0 mm 0 W/m2
01:11 39.4 °F /  4.1 °C 36.1 °F /  2.3 °C 29.24 in /  990.1 hPa West 7.0 mph /  11.3 km/h 10.0 mph /  16.1 km/h 88 % 0.00 in /  0 mm 0 W/m2
01:17 39.4 °F /  4.1 °C 36.1 °F /  2.3 °C 29.24 in /  990.1 hPa West 7.0 mph /  11.3 km/h 11.0 mph /  17.7 km/h 88 % 0.00 in /  0 mm 0 W/m2
01:21 39.2 °F /  4 °C 35.9 °F /  2.2 °C 29.24 in /  990.1 hPa WNW 6.0 mph /  9.7 km/h 9.0 mph /  14.5 km/h 88 % 0.00 in /  0 mm 0 W/m2
01:27 39.0 °F /  3.9 °C 36.1 °F /  2.3 °C 29.24 in /  990.1 hPa West 6.0 mph /  9.7 km/h 8.0 mph /  12.9 km/h 89 % 0.00 in /  0 mm 0 W/m2
01:30 39.0 °F /  3.9 °C 36.1 °F /  2.3 °C 29.25 in /  990.4 hPa West 6.0 mph /  9.7 km/h 9.0 mph /  14.5 km/h 89 % 0.00 in /  0 mm 0 W/m2
01:35 38.8 °F /  3.8 °C 35.9 °F /  2.2 °C 29.24 in /  990.1 hPa West 6.0 mph /  9.7 km/h 9.0 mph /  14.5 km/h 89 % 0.00 in /  0 mm 0 W/m2
01:38 38.8 °F /  3.8 °C 35.9 °F /  2.2 °C 29.24 in /  990.1 hPa West 7.0 mph /  11.3 km/h 11.0 mph /  17.7 km/h 89 % 0.00 in /  0 mm 0 W/m2
01:43 38.8 °F /  3.8 °C 35.9 °F /  2.2 °C 29.24 in /  990.1 hPa West 5.0 mph /  8 km/h 8.0 mph /  12.9 km/h 89 % 0.00 in /  0 mm 0 W/m2
01:48 38.8 °F /  3.8 °C 35.9 °F /  2.2 °C 29.24 in /  990.1 hPa WNW 6.0 mph /  9.7 km/h 8.0 mph /  12.9 km/h 89 % 0.00 in /  0 mm 0 W/m2
01:49 38.8 °F /  3.8 °C 35.9 °F /  2.2 °C 29.24 in /  990.1 hPa WNW 6.0 mph /  9.7 km/h 8.0 mph /  12.9 km/h 89 % 0.00 in /  0 mm 0 W/m2
01:51 38.8 °F /  3.8 °C 35.9 °F /  2.2 °C 29.24 in /  990.1 hPa West 7.0 mph /  11.3 km/h 8.0 mph /  12.9 km/h 89 % 0.00 in /  0 mm 0 W/m2
01:56 38.8 °F /  3.8 °C 35.9 °F /  2.2 °C 29.24 in /  990.1 hPa WNW 6.0 mph /  9.7 km/h 8.0 mph /  12.9 km/h 89 % 0.00 in /  0 mm 0 W/m2
01:57 38.8 °F /  3.8 °C 35.9 °F /  2.2 °C 29.24 in /  990.1 hPa WNW 7.0 mph /  11.3 km/h 8.0 mph /  12.9 km/h 89 % 0.00 in /  0 mm 0 W/m2
02:02 38.8 °F /  3.8 °C 36.2 °F /  2.3 °C 29.24 in /  990.1 hPa WNW 7.0 mph /  11.3 km/h 10.0 mph /  16.1 km/h 90 % 0.00 in /  0 mm 0 W/m2
02:04 38.8 °F /  3.8 °C 36.2 °F /  2.3 °C 29.24 in /  990.1 hPa WNW 8.0 mph /  12.9 km/h 11.0 mph /  17.7 km/h 90 % 0.00 in /  0 mm 0 W/m2
02:09 38.8 °F /  3.8 °C 36.2 °F /  2.3 °C 29.24 in /  990.1 hPa WNW 6.0 mph /  9.7 km/h 8.0 mph /  12.9 km/h 90 % 0.00 in /  0 mm 0 W/m2
02:10 38.8 °F /  3.8 °C 36.2 °F /  2.3 °C 29.24 in /  990.1 hPa WNW 6.0 mph /  9.7 km/h 9.0 mph /  14.5 km/h 90 % 0.00 in /  0 mm 0 W/m2
02:15 38.8 °F /  3.8 °C 36.2 °F /  2.3 °C 29.24 in /  990.1 hPa WNW 6.0 mph /  9.7 km/h 9.0 mph /  14.5 km/h 90 % 0.00 in /  0 mm 0 W/m2
02:19 38.8 °F /  3.8 °C 36.2 °F /  2.3 °C 29.24 in /  990.1 hPa West 6.0 mph /  9.7 km/h 9.0 mph /  14.5 km/h 90 % 0.00 in /  0 mm 0 W/m2
02:21 39.0 °F /  3.9 °C 36.3 °F /  2.4 °C 29.24 in /  990.1 hPa West 7.0 mph /  11.3 km/h 10.0 mph /  16.1 km/h 90 % 0.00 in /  0 mm 0 W/m2
02:25 39.0 °F /  3.9 °C 36.3 °F /  2.4 °C 29.24 in /  990.1 hPa West 7.0 mph /  11.3 km/h 10.0 mph /  16.1 km/h 90 % 0.00 in /  0 mm 0 W/m2
02:30 39.2 °F /  4 °C 36.5 °F /  2.5 °C 29.23 in /  989.7 hPa West 7.0 mph /  11.3 km/h 9.0 mph /  14.5 km/h 90 % 0.00 in /  0 mm 0 W/m2
02:32 39.2 °F /  4 °C 36.5 °F /  2.5 °C 29.23 in /  989.7 hPa West 7.0 mph /  11.3 km/h 9.0 mph /  14.5 km/h 90 % 0.00 in /  0 mm 0 W/m2
02:37 39.2 °F /  4 °C 36.5 °F /  2.5 °C 29.23 in /  989.7 hPa West 8.0 mph /  12.9 km/h 10.0 mph /  16.1 km/h 90 % 0.00 in /  0 mm 0 W/m2
02:41 39.4 °F /  4.1 °C 36.7 °F /  2.6 °C 29.23 in /  989.7 hPa West 8.0 mph /  12.9 km/h 10.0 mph /  16.1 km/h 90 % 0.00 in /  0 mm 0 W/m2
02:46 39.4 °F /  4.1 °C 36.7 °F /  2.6 °C 29.23 in /  989.7 hPa WNW 6.0 mph /  9.7 km/h 9.0 mph /  14.5 km/h 90 % 0.00 in /  0 mm 0 W/m2
02:52 39.4 °F /  4.1 °C 36.7 °F /  2.6 °C 29.23 in /  989.7 hPa WNW 6.0 mph /  9.7 km/h 10.0 mph /  16.1 km/h 90 % 0.00 in /  0 mm 0 W/m2
02:57 39.4 °F /  4.1 °C 36.7 °F /  2.6 °C 29.23 in /  989.7 hPa WNW 5.0 mph /  8 km/h 9.0 mph /  14.5 km/h 90 % 0.00 in /  0 mm 0 W/m2
03:03 39.6 °F /  4.2 °C 36.9 °F /  2.7 °C 29.23 in /  989.7 hPa WNW 2.0 mph /  3.2 km/h 7.0 mph /  11.3 km/h 90 % 0.00 in /  0 mm 0 W/m2
03:07 39.6 °F /  4.2 °C 36.9 °F /  2.7 °C 29.23 in /  989.7 hPa WNW 1.0 mph /  1.6 km/h 4.0 mph /  6.4 km/h 90 % 0.00 in /  0 mm 0 W/m2
03:12 39.4 °F /  4.1 °C 36.4 °F /  2.4 °C 29.24 in /  990.1 hPa Calm     89 % 0.00 in /  0 mm 0 W/m2
03:16 39.4 °F /  4.1 °C 36.7 °F /  2.6 °C 29.24 in /  990.1 hPa Calm     90 % 0.00 in /  0 mm 0 W/m2
03:21 39.4 °F /  4.1 °C 36.4 °F /  2.4 °C 29.24 in /  990.1 hPa Calm     89 % 0.00 in /  0 mm 0 W/m2
03:23 39.4 °F /  4.1 °C 36.4 °F /  2.4 °C 29.24 in /  990.1 hPa Calm     89 % 0.00 in /  0 mm 0 W/m2
03:28 39.0 °F /  3.9 °C 36.1 °F /  2.3 °C 29.23 in /  989.7 hPa Calm     89 % 0.00 in /  0 mm 0 W/m2
03:29 39.0 °F /  3.9 °C 36.1 °F /  2.3 °C 29.23 in /  989.7 hPa Calm     89 % 0.00 in /  0 mm 0 W/m2
03:34 39.0 °F /  3.9 °C 36.3 °F /  2.4 °C 29.23 in /  989.7 hPa WNW 1.0 mph /  1.6 km/h 5.0 mph /  8 km/h 90 % 0.00 in /  0 mm 0 W/m2
03:35 39.0 °F /  3.9 °C 36.3 °F /  2.4 °C 29.23 in /  989.7 hPa WNW 1.0 mph /  1.6 km/h 5.0 mph /  8 km/h 90 % 0.00 in /  0 mm 0 W/m2
03:40 38.8 °F /  3.8 °C 36.2 °F /  2.3 °C 29.23 in /  989.7 hPa WNW 2.0 mph /  3.2 km/h 5.0 mph /  8 km/h 90 % 0.00 in /  0 mm 0 W/m2
03:45 38.8 °F /  3.8 °C 36.2 °F /  2.3 °C 29.23 in /  989.7 hPa West 2.0 mph /  3.2 km/h 7.0 mph /  11.3 km/h 90 % 0.00 in /  0 mm 0 W/m2
03:46 39.0 °F /  3.9 °C 36.3 °F /  2.4 °C 29.23 in /  989.7 hPa West 3.0 mph /  4.8 km/h 7.0 mph /  11.3 km/h 90 % 0.00 in /  0 mm 0 W/m2
03:52 39.0 °F /  3.9 °C 36.6 °F /  2.6 °C 29.23 in /  989.7 hPa West 2.0 mph /  3.2 km/h 5.0 mph /  8 km/h 91 % 0.00 in /  0 mm 0 W/m2
03:57 39.0 °F /  3.9 °C 36.3 °F /  2.4 °C 29.23 in /  989.7 hPa Calm   5.0 mph /  8 km/h 90 % 0.00 in /  0 mm 0 W/m2
04:02 39.0 °F /  3.9 °C 36.3 °F /  2.4 °C 29.23 in /  989.7 hPa Calm   2.0 mph /  3.2 km/h 90 % 0.00 in /  0 mm 0 W/m2
04:04 39.0 °F /  3.9 °C 36.3 °F /  2.4 °C 29.23 in /  989.7 hPa Calm   1.0 mph /  1.6 km/h 90 % 0.00 in /  0 mm 0 W/m2
04:05 39.0 °F /  3.9 °C 36.3 °F /  2.4 °C 29.23 in /  989.7 hPa Calm   1.0 mph /  1.6 km/h 90 % 0.00 in /  0 mm 0 W/m2
04:10 39.0 °F /  3.9 °C 36.3 °F /  2.4 °C 29.23 in /  989.7 hPa Calm   1.0 mph /  1.6 km/h 90 % 0.00 in /  0 mm 0 W/m2
04:14 39.0 °F /  3.9 °C 36.3 °F /  2.4 °C 29.23 in /  989.7 hPa Calm     90 % 0.00 in /  0 mm 0 W/m2
04:15 39.0 °F /  3.9 °C 36.3 °F /  2.4 °C 29.23 in /  989.7 hPa Calm     90 % 0.00 in /  0 mm 0 W/m2
04:20 38.8 °F /  3.8 °C 36.2 °F /  2.3 °C 29.23 in /  989.7 hPa West 1.0 mph /  1.6 km/h 3.0 mph /  4.8 km/h 90 % 0.00 in /  0 mm 0 W/m2
04:25 38.8 °F /  3.8 °C 36.4 °F /  2.4 °C 29.22 in /  989.4 hPa West 1.0 mph /  1.6 km/h 3.0 mph /  4.8 km/h 91 % 0.00 in /  0 mm 0 W/m2
04:27 38.8 °F /  3.8 °C 36.4 °F /  2.4 °C 29.22 in /  989.4 hPa West 1.0 mph /  1.6 km/h 4.0 mph /  6.4 km/h 91 % 0.00 in /  0 mm 0 W/m2
04:32 38.8 °F /  3.8 °C 36.4 °F /  2.4 °C 29.22 in /  989.4 hPa West 3.0 mph /  4.8 km/h 5.0 mph /  8 km/h 91 % 0.00 in /  0 mm 0 W/m2
04:33 38.8 °F /  3.8 °C 36.4 °F /  2.4 °C 29.22 in /  989.4 hPa West 3.0 mph /  4.8 km/h 5.0 mph /  8 km/h 91 % 0.00 in /  0 mm 0 W/m2
04:38 38.8 °F /  3.8 °C 36.4 °F /  2.4 °C 29.22 in /  989.4 hPa WSW 3.0 mph /  4.8 km/h 6.0 mph /  9.7 km/h 91 % 0.00 in /  0 mm 0 W/m2
04:43 38.8 °F /  3.8 °C 36.2 °F /  2.3 °C 29.22 in /  989.4 hPa WSW 1.0 mph /  1.6 km/h 4.0 mph /  6.4 km/h 90 % 0.00 in /  0 mm 0 W/m2
04:48 38.8 °F /  3.8 °C 36.2 °F /  2.3 °C 29.22 in /  989.4 hPa Calm   4.0 mph /  6.4 km/h 90 % 0.00 in /  0 mm 0 W/m2
04:53 38.8 °F /  3.8 °C 36.2 °F /  2.3 °C 29.22 in /  989.4 hPa Calm   2.0 mph /  3.2 km/h 90 % 0.00 in /  0 mm 0 W/m2
04:54 38.8 °F /  3.8 °C 36.2 °F /  2.3 °C 29.22 in /  989.4 hPa Calm   1.0 mph /  1.6 km/h 90 % 0.00 in /  0 mm 0 W/m2
04:59 38.7 °F /  3.7 °C 36.0 °F /  2.2 °C 29.22 in /  989.4 hPa Calm     90 % 0.00 in /  0 mm 0 W/m2
05:00 38.7 °F /  3.7 °C 36.0 °F /  2.2 °C 29.22 in /  989.4 hPa Calm   1.0 mph /  1.6 km/h 90 % 0.00 in /  0 mm 0 W/m2
05:05 38.7 °F /  3.7 °C 36.0 °F /  2.2 °C 29.22 in /  989.4 hPa Calm     90 % 0.00 in /  0 mm 0 W/m2
05:10 38.7 °F /  3.7 °C 36.0 °F /  2.2 °C 29.22 in /  989.4 hPa WSW 1.0 mph /  1.6 km/h 2.0 mph /  3.2 km/h 90 % 0.00 in /  0 mm 0 W/m2
05:15 38.5 °F /  3.6 °C 36.1 °F /  2.3 °C 29.22 in /  989.4 hPa South 2.0 mph /  3.2 km/h 5.0 mph /  8 km/h 91 % 0.00 in /  0 mm 0 W/m2
05:16 38.5 °F /  3.6 °C 36.1 °F /  2.3 °C 29.22 in /  989.4 hPa SSE 2.0 mph /  3.2 km/h 5.0 mph /  8 km/h 91 % 0.00 in /  0 mm 0 W/m2
05:21 38.5 °F /  3.6 °C 36.1 °F /  2.3 °C 29.22 in /  989.4 hPa SSE 1.0 mph /  1.6 km/h 4.0 mph /  6.4 km/h 91 % 0.00 in /  0 mm 0 W/m2
05:23 38.7 °F /  3.7 °C 36.3 °F /  2.4 °C 29.22 in /  989.4 hPa South 1.0 mph /  1.6 km/h 4.0 mph /  6.4 km/h 91 % 0.00 in /  0 mm 0 W/m2
05:26 38.7 °F /  3.7 °C 36.3 °F /  2.4 °C 29.22 in /  989.4 hPa SSW 3.0 mph /  4.8 km/h 6.0 mph /  9.7 km/h 91 % 0.00 in /  0 mm 0 W/m2
05:31 38.7 °F /  3.7 °C 36.3 °F /  2.4 °C 29.22 in /  989.4 hPa Calm   2.0 mph /  3.2 km/h 91 % 0.00 in /  0 mm 0 W/m2
05:34 38.7 °F /  3.7 °C 36.3 °F /  2.4 °C 29.22 in /  989.4 hPa Calm   2.0 mph /  3.2 km/h 91 % 0.00 in /  0 mm 0 W/m2
05:39 38.7 °F /  3.7 °C 36.3 °F /  2.4 °C 29.22 in /  989.4 hPa SW 1.0 mph /  1.6 km/h 4.0 mph /  6.4 km/h 91 % 0.00 in /  0 mm 0 W/m2
05:44 38.7 °F /  3.7 °C 36.3 °F /  2.4 °C 29.23 in /  989.7 hPa SW 1.0 mph /  1.6 km/h 5.0 mph /  8 km/h 91 % 0.00 in /  0 mm 0 W/m2
05:45 38.7 °F /  3.7 °C 36.3 °F /  2.4 °C 29.23 in /  989.7 hPa SSW 1.0 mph /  1.6 km/h 5.0 mph /  8 km/h 91 % 0.00 in /  0 mm 0 W/m2
05:50 38.7 °F /  3.7 °C 36.3 °F /  2.4 °C 29.23 in /  989.7 hPa South 4.0 mph /  6.4 km/h 6.0 mph /  9.7 km/h 91 % 0.00 in /  0 mm 0 W/m2
05:55 39.0 °F /  3.9 °C 36.6 °F /  2.6 °C 29.23 in /  989.7 hPa SSW 7.0 mph /  11.3 km/h 11.0 mph /  17.7 km/h 91 % 0.00 in /  0 mm 0 W/m2
06:00 39.2 °F /  4 °C 36.8 °F /  2.7 °C 29.23 in /  989.7 hPa SSW 6.0 mph /  9.7 km/h 10.0 mph /  16.1 km/h 91 % 0.00 in /  0 mm 0 W/m2
06:05 39.4 °F /  4.1 °C 37.0 °F /  2.8 °C 29.23 in /  989.7 hPa SSW 5.0 mph /  8 km/h 7.0 mph /  11.3 km/h 91 % 0.00 in /  0 mm 0 W/m2
06:06 39.4 °F /  4.1 °C 37.0 °F /  2.8 °C 29.22 in /  989.4 hPa SSW 5.0 mph /  8 km/h 7.0 mph /  11.3 km/h 91 % 0.00 in /  0 mm 0 W/m2
06:11 39.4 °F /  4.1 °C 36.7 °F /  2.6 °C 29.22 in /  989.4 hPa SSW 4.0 mph /  6.4 km/h 6.0 mph /  9.7 km/h 90 % 0.00 in /  0 mm 0 W/m2
06:13 39.4 °F /  4.1 °C 36.7 °F /  2.6 °C 29.23 in /  989.7 hPa SSW 3.0 mph /  4.8 km/h 6.0 mph /  9.7 km/h 90 % 0.00 in /  0 mm 0 W/m2
06:18 39.4 °F /  4.1 °C 36.7 °F /  2.6 °C 29.22 in /  989.4 hPa SW 5.0 mph /  8 km/h 8.0 mph /  12.9 km/h 90 % 0.00 in /  0 mm 0 W/m2
06:23 39.2 °F /  4 °C 36.5 °F /  2.5 °C 29.22 in /  989.4 hPa WSW 3.0 mph /  4.8 km/h 5.0 mph /  8 km/h 90 % 0.00 in /  0 mm 0 W/m2
06:28 39.2 °F /  4 °C 36.5 °F /  2.5 °C 29.22 in /  989.4 hPa WSW 1.0 mph /  1.6 km/h 3.0 mph /  4.8 km/h 90 % 0.00 in /  0 mm 0 W/m2
06:29 39.2 °F /  4 °C 36.5 °F /  2.5 °C 29.22 in /  989.4 hPa WSW 1.0 mph /  1.6 km/h 5.0 mph /  8 km/h 90 % 0.00 in /  0 mm 0 W/m2
06:34 39.0 °F /  3.9 °C 36.3 °F /  2.4 °C 29.22 in /  989.4 hPa SW 1.0 mph /  1.6 km/h 4.0 mph /  6.4 km/h 90 % 0.00 in /  0 mm 0 W/m2
06:40 39.0 °F /  3.9 °C 36.3 °F /  2.4 °C 29.22 in /  989.4 hPa Calm     90 % 0.00 in /  0 mm 0 W/m2
06:42 38.8 °F /  3.8 °C 36.2 °F /  2.3 °C 29.22 in /  989.4 hPa Calm   1.0 mph /  1.6 km/h 90 % 0.00 in /  0 mm 0 W/m2
06:47 38.7 °F /  3.7 °C 36.0 °F /  2.2 °C 29.22 in /  989.4 hPa Calm     90 % 0.00 in /  0 mm 0 W/m2
06:50 38.7 °F /  3.7 °C 36.0 °F /  2.2 °C 29.22 in /  989.4 hPa Calm     90 % 0.00 in /  0 mm 0 W/m2
06:55 38.5 °F /  3.6 °C 35.8 °F /  2.1 °C 29.22 in /  989.4 hPa Calm     90 % 0.00 in /  0 mm 0 W/m2
07:01 38.1 °F /  3.4 °C 35.7 °F /  2.1 °C 29.22 in /  989.4 hPa Calm   2.0 mph /  3.2 km/h 91 % 0.00 in /  0 mm 0 W/m2
07:04 38.1 °F /  3.4 °C 35.7 °F /  2.1 °C 29.22 in /  989.4 hPa SSE 1.0 mph /  1.6 km/h 2.0 mph /  3.2 km/h 91 % 0.00 in /  0 mm 0 W/m2
07:09 38.1 °F /  3.4 °C 35.7 °F /  2.1 °C 29.22 in /  989.4 hPa Calm   2.0 mph /  3.2 km/h 91 % 0.00 in /  0 mm 0 W/m2
07:11 38.1 °F /  3.4 °C 35.7 °F /  2.1 °C 29.23 in /  989.7 hPa Calm   2.0 mph /  3.2 km/h 91 % 0.00 in /  0 mm 0 W/m2
07:17 37.9 °F /  3.3 °C 35.5 °F /  1.9 °C 29.23 in /  989.7 hPa Calm   2.0 mph /  3.2 km/h 91 % 0.00 in /  0 mm 0 W/m2
07:20 37.9 °F /  3.3 °C 35.5 °F /  1.9 °C 29.23 in /  989.7 hPa Calm   1.0 mph /  1.6 km/h 91 % 0.00 in /  0 mm 0 W/m2
07:21 37.9 °F /  3.3 °C 35.5 °F /  1.9 °C 29.23 in /  989.7 hPa Calm   2.0 mph /  3.2 km/h 91 % 0.00 in /  0 mm 0 W/m2
07:26 37.9 °F /  3.3 °C 35.5 °F /  1.9 °C 29.23 in /  989.7 hPa Calm   1.0 mph /  1.6 km/h 91 % 0.00 in /  0 mm 0 W/m2
07:31 37.9 °F /  3.3 °C 35.5 °F /  1.9 °C 29.23 in /  989.7 hPa SSE 1.0 mph /  1.6 km/h 2.0 mph /  3.2 km/h 91 % 0.00 in /  0 mm 0 W/m2
07:36 37.9 °F /  3.3 °C 35.8 °F /  2.1 °C 29.23 in /  989.7 hPa Calm   2.0 mph /  3.2 km/h 92 % 0.00 in /  0 mm 0 W/m2
07:41 37.9 °F /  3.3 °C 35.8 °F /  2.1 °C 29.23 in /  989.7 hPa Calm     92 % 0.00 in /  0 mm 0 W/m2
07:43 37.9 °F /  3.3 °C 35.8 °F /  2.1 °C 29.23 in /  989.7 hPa Calm     92 % 0.00 in /  0 mm 0 W/m2
07:48 37.9 °F /  3.3 °C 35.8 °F /  2.1 °C 29.23 in /  989.7 hPa Calm     92 % 0.00 in /  0 mm 0 W/m2
07:49 37.9 °F /  3.3 °C 35.8 °F /  2.1 °C 29.23 in /  989.7 hPa Calm   1.0 mph /  1.6 km/h 92 % 0.00 in /  0 mm 0 W/m2
07:54 37.9 °F /  3.3 °C 35.8 °F /  2.1 °C 29.23 in /  989.7 hPa Calm   2.0 mph /  3.2 km/h 92 % 0.00 in /  0 mm 0 W/m2
07:57 37.9 °F /  3.3 °C 35.8 °F /  2.1 °C 29.23 in /  989.7 hPa Calm     92 % 0.00 in /  0 mm 0 W/m2
08:02 37.8 °F /  3.2 °C 35.6 °F /  2 °C 29.23 in /  989.7 hPa Calm     92 % 0.00 in /  0 mm 0 W/m2
08:03 37.8 °F /  3.2 °C 35.6 °F /  2 °C 29.23 in /  989.7 hPa Calm     92 % 0.00 in /  0 mm 0 W/m2
08:05 37.8 °F /  3.2 °C 35.6 °F /  2 °C 29.23 in /  989.7 hPa Calm   1.0 mph /  1.6 km/h 92 % 0.00 in /  0 mm 0 W/m2
08:10 37.8 °F /  3.2 °C 35.6 °F /  2 °C 29.23 in /  989.7 hPa Calm     92 % 0.00 in /  0 mm 0 W/m2
08:12 37.8 °F /  3.2 °C 35.6 °F /  2 °C 29.23 in /  989.7 hPa Calm     92 % 0.00 in /  0 mm 0 W/m2
08:17 37.8 °F /  3.2 °C 35.6 °F /  2 °C 29.23 in /  989.7 hPa Calm     92 % 0.00 in /  0 mm 0 W/m2
08:20 37.8 °F /  3.2 °C 35.6 °F /  2 °C 29.23 in /  989.7 hPa Calm     92 % 0.00 in /  0 mm 0 W/m2
08:25 37.8 °F /  3.2 °C 35.6 °F /  2 °C 29.23 in /  989.7 hPa Calm     92 % 0.00 in /  0 mm 0 W/m2
08:26 37.8 °F /  3.2 °C 35.6 °F /  2 °C 29.23 in /  989.7 hPa Calm   2.0 mph /  3.2 km/h 92 % 0.00 in /  0 mm 0 W/m2
08:31 37.8 °F /  3.2 °C 35.6 °F /  2 °C 29.23 in /  989.7 hPa Calm   1.0 mph /  1.6 km/h 92 % 0.00 in /  0 mm 5 W/m2
08:32 37.8 °F /  3.2 °C 35.6 °F /  2 °C 29.23 in /  989.7 hPa Calm   1.0 mph /  1.6 km/h 92 % 0.00 in /  0 mm 5 W/m2
08:37 37.8 °F /  3.2 °C 35.6 °F /  2 °C 29.22 in /  989.4 hPa Calm   1.0 mph /  1.6 km/h 92 % 0.00 in /  0 mm 9 W/m2
08:40 37.8 °F /  3.2 °C 35.6 °F /  2 °C 29.22 in /  989.4 hPa SE 1.0 mph /  1.6 km/h 2.0 mph /  3.2 km/h 92 % 0.00 in /  0 mm 11 W/m2
08:45 37.9 °F /  3.3 °C 35.8 °F /  2.1 °C 29.22 in /  989.4 hPa Calm   1.0 mph /  1.6 km/h 92 % 0.00 in /  0 mm 14 W/m2
08:47 37.9 °F /  3.3 °C 35.8 °F /  2.1 °C 29.22 in /  989.4 hPa Calm   1.0 mph /  1.6 km/h 92 % 0.00 in /  0 mm 14 W/m2
08:52 37.9 °F /  3.3 °C 36.1 °F /  2.3 °C 29.22 in /  989.4 hPa ESE 1.0 mph /  1.6 km/h 4.0 mph /  6.4 km/h 93 % 0.00 in /  0 mm 12 W/m2
08:55 37.9 °F /  3.3 °C 36.1 °F /  2.3 °C 29.22 in /  989.4 hPa Calm   2.0 mph /  3.2 km/h 93 % 0.00 in /  0 mm 14 W/m2
09:01 37.9 °F /  3.3 °C 36.1 °F /  2.3 °C 29.22 in /  989.4 hPa Calm   2.0 mph /  3.2 km/h 93 % 0.00 in /  0 mm 16 W/m2
09:02 38.1 °F /  3.4 °C 36.3 °F /  2.4 °C 29.22 in /  989.4 hPa Calm     93 % 0.00 in /  0 mm 16 W/m2
09:05 37.9 °F /  3.3 °C 36.1 °F /  2.3 °C 29.22 in /  989.4 hPa Calm     93 % 0.00 in /  0 mm 14 W/m2
09:07 37.9 °F /  3.3 °C 36.1 °F /  2.3 °C 29.22 in /  989.4 hPa Calm     93 % 0.00 in /  0 mm 14 W/m2
09:12 37.9 °F /  3.3 °C 36.1 °F /  2.3 °C 29.22 in /  989.4 hPa Calm     93 % 0.00 in /  0 mm 12 W/m2
09:13 38.1 °F /  3.4 °C 36.3 °F /  2.4 °C 29.22 in /  989.4 hPa Calm     93 % 0.00 in /  0 mm 14 W/m2
09:19 38.1 °F /  3.4 °C 36.3 °F /  2.4 °C 29.22 in /  989.4 hPa ESE 2.0 mph /  3.2 km/h 3.0 mph /  4.8 km/h 93 % 0.00 in /  0 mm 18 W/m2
09:24 38.1 °F /  3.4 °C 36.3 °F /  2.4 °C 29.22 in /  989.4 hPa ESE 1.0 mph /  1.6 km/h 2.0 mph /  3.2 km/h 93 % 0.00 in /  0 mm 25 W/m2
09:28 38.1 °F /  3.4 °C 36.3 °F /  2.4 °C 29.23 in /  989.7 hPa Calm     93 % 0.00 in /  0 mm 28 W/m2
09:29 38.1 °F /  3.4 °C 36.3 °F /  2.4 °C 29.23 in /  989.7 hPa Calm     93 % 0.00 in /  0 mm 28 W/m2
09:34 38.1 °F /  3.4 °C 36.3 °F /  2.4 °C 29.22 in /  989.4 hPa Calm     93 % 0.00 in /  0 mm 35 W/m2
09:35 38.1 °F /  3.4 °C 36.3 °F /  2.4 °C 29.22 in /  989.4 hPa Calm     93 % 0.00 in /  0 mm 40 W/m2
09:41 38.3 °F /  3.5 °C 36.5 °F /  2.5 °C 29.22 in /  989.4 hPa Calm   1.0 mph /  1.6 km/h 93 % 0.00 in /  0 mm 42 W/m2
09:46 38.5 °F /  3.6 °C 36.6 °F /  2.6 °C 29.22 in /  989.4 hPa Calm     93 % 0.00 in /  0 mm 37 W/m2
09:50 38.5 °F /  3.6 °C 36.6 °F /  2.6 °C 29.22 in /  989.4 hPa Calm     93 % 0.00 in /  0 mm 32 W/m2
09:51 38.5 °F /  3.6 °C 36.6 °F /  2.6 °C 29.22 in /  989.4 hPa Calm     93 % 0.00 in /  0 mm 32 W/m2
09:56 38.5 °F /  3.6 °C 36.6 °F /  2.6 °C 29.22 in /  989.4 hPa Calm     93 % 0.00 in /  0 mm 30 W/m2
09:57 38.5 °F /  3.6 °C 36.6 °F /  2.6 °C 29.22 in /  989.4 hPa Calm     93 % 0.00 in /  0 mm 30 W/m2
09:59 38.5 °F /  3.6 °C 36.6 °F /  2.6 °C 29.22 in /  989.4 hPa Calm     93 % 0.00 in /  0 mm 32 W/m2
10:04 38.5 °F /  3.6 °C 36.9 °F /  2.7 °C 29.22 in /  989.4 hPa Calm   1.0 mph /  1.6 km/h 94 % 0.00 in /  0 mm 33 W/m2
10:05 38.7 °F /  3.7 °C 37.1 °F /  2.8 °C 29.22 in /  989.4 hPa Calm   1.0 mph /  1.6 km/h 94 % 0.00 in /  0 mm 33 W/m2
10:10 38.7 °F /  3.7 °C 37.1 °F /  2.8 °C 29.22 in /  989.4 hPa Calm     94 % 0.00 in /  0 mm 33 W/m2
10:11 38.7 °F /  3.7 °C 37.1 °F /  2.8 °C 29.22 in /  989.4 hPa Calm     94 % 0.00 in /  0 mm 33 W/m2
10:13 38.7 °F /  3.7 °C 37.1 °F /  2.8 °C 29.22 in /  989.4 hPa Calm     94 % 0.00 in /  0 mm 33 W/m2
10:17 38.7 °F /  3.7 °C 37.1 °F /  2.8 °C 29.22 in /  989.4 hPa Calm     94 % 0.00 in /  0 mm 35 W/m2
10:20 38.7 °F /  3.7 °C 37.1 °F /  2.8 °C 29.22 in /  989.4 hPa Calm     94 % 0.00 in /  0 mm 32 W/m2
10:23 38.8 °F /  3.8 °C 37.3 °F /  2.9 °C 29.22 in /  989.4 hPa Calm     94 % 0.00 in /  0 mm 28 W/m2
10:28 38.8 °F /  3.8 °C 37.3 °F /  2.9 °C 29.22 in /  989.4 hPa Calm     94 % 0.00 in /  0 mm 23 W/m2
10:34 38.8 °F /  3.8 °C 37.3 °F /  2.9 °C 29.23 in /  989.7 hPa Calm     94 % 0.00 in /  0 mm 25 W/m2
10:36 38.8 °F /  3.8 °C 37.3 °F /  2.9 °C 29.23 in /  989.7 hPa Calm     94 % 0.00 in /  0 mm 26 W/m2
10:41 38.8 °F /  3.8 °C 37.3 °F /  2.9 °C 29.23 in /  989.7 hPa Calm     94 % 0.00 in /  0 mm 33 W/m2
10:46 38.8 °F /  3.8 °C 37.3 °F /  2.9 °C 29.23 in /  989.7 hPa Calm     94 % 0.00 in /  0 mm 39 W/m2
10:50 38.8 °F /  3.8 °C 37.3 °F /  2.9 °C 29.23 in /  989.7 hPa Calm     94 % 0.00 in /  0 mm 40 W/m2
10:53 39.0 °F /  3.9 °C 37.4 °F /  3 °C 29.23 in /  989.7 hPa NNE 2.0 mph /  3.2 km/h 5.0 mph /  8 km/h 94 % 0.00 in /  0 mm 42 W/m2
10:55 39.0 °F /  3.9 °C 37.4 °F /  3 °C 29.23 in /  989.7 hPa NNE 2.0 mph /  3.2 km/h 6.0 mph /  9.7 km/h 94 % 0.00 in /  0 mm 44 W/m2
10:59 39.0 °F /  3.9 °C 37.4 °F /  3 °C 29.23 in /  989.7 hPa North 1.0 mph /  1.6 km/h 5.0 mph /  8 km/h 94 % 0.00 in /  0 mm 46 W/m2
11:00 39.0 °F /  3.9 °C 37.4 °F /  3 °C 29.23 in /  989.7 hPa North 2.0 mph /  3.2 km/h 6.0 mph /  9.7 km/h 94 % 0.00 in /  0 mm 46 W/m2
11:05 39.0 °F /  3.9 °C 37.2 °F /  2.9 °C 29.23 in /  989.7 hPa NE 1.0 mph /  1.6 km/h 4.0 mph /  6.4 km/h 93 % 0.00 in /  0 mm 46 W/m2
11:11 39.2 °F /  4 °C 37.6 °F /  3.1 °C 29.23 in /  989.7 hPa North 2.0 mph /  3.2 km/h 5.0 mph /  8 km/h 94 % 0.00 in /  0 mm 40 W/m2
11:14 39.2 °F /  4 °C 37.6 °F /  3.1 °C 29.23 in /  989.7 hPa NNE 2.0 mph /  3.2 km/h 7.0 mph /  11.3 km/h 94 % 0.00 in /  0 mm 33 W/m2
11:19 39.2 °F /  4 °C 37.6 °F /  3.1 °C 29.23 in /  989.7 hPa NNE 2.0 mph /  3.2 km/h 6.0 mph /  9.7 km/h 94 % 0.00 in /  0 mm 28 W/m2
11:24 39.2 °F /  4 °C 37.6 °F /  3.1 °C 29.23 in /  989.7 hPa Calm   1.0 mph /  1.6 km/h 94 % 0.00 in /  0 mm 33 W/m2
11:29 39.2 °F /  4 °C 37.6 °F /  3.1 °C 29.22 in /  989.4 hPa Calm     94 % 0.00 in /  0 mm 44 W/m2
11:30 39.2 °F /  4 °C 37.6 °F /  3.1 °C 29.22 in /  989.4 hPa Calm   1.0 mph /  1.6 km/h 94 % 0.00 in /  0 mm 44 W/m2
11:35 39.2 °F /  4 °C 37.6 °F /  3.1 °C 29.23 in /  989.7 hPa NNE 1.0 mph /  1.6 km/h 2.0 mph /  3.2 km/h 94 % 0.00 in /  0 mm 58 W/m2
11:37 39.4 °F /  4.1 °C 37.8 °F /  3.2 °C 29.22 in /  989.4 hPa NE 1.0 mph /  1.6 km/h 3.0 mph /  4.8 km/h 94 % 0.00 in /  0 mm 65 W/m2
11:38 39.4 °F /  4.1 °C 37.8 °F /  3.2 °C 29.22 in /  989.4 hPa NE 1.0 mph /  1.6 km/h 3.0 mph /  4.8 km/h 94 % 0.00 in /  0 mm 67 W/m2
11:43 39.4 °F /  4.1 °C 37.8 °F /  3.2 °C 29.22 in /  989.4 hPa NE 1.0 mph /  1.6 km/h 4.0 mph /  6.4 km/h 94 % 0.00 in /  0 mm 67 W/m2
11:47 39.4 °F /  4.1 °C 37.8 °F /  3.2 °C 29.22 in /  989.4 hPa NE 1.0 mph /  1.6 km/h 3.0 mph /  4.8 km/h 94 % 0.00 in /  0 mm 67 W/m2
11:52 39.6 °F /  4.2 °C 38.0 °F /  3.3 °C 29.22 in /  989.4 hPa NE 1.0 mph /  1.6 km/h 2.0 mph /  3.2 km/h 94 % 0.00 in /  0 mm 77 W/m2
11:55 39.6 °F /  4.2 °C 38.0 °F /  3.3 °C 29.22 in /  989.4 hPa Calm     94 % 0.00 in /  0 mm 81 W/m2
12:00 39.6 °F /  4.2 °C 38.0 °F /  3.3 °C 29.22 in /  989.4 hPa Calm   2.0 mph /  3.2 km/h 94 % 0.00 in /  0 mm 72 W/m2
12:06 39.7 °F /  4.3 °C 38.2 °F /  3.4 °C 29.22 in /  989.4 hPa NE 1.0 mph /  1.6 km/h 5.0 mph /  8 km/h 94 % 0.00 in /  0 mm 76 W/m2
12:07 39.7 °F /  4.3 °C 38.2 °F /  3.4 °C 29.22 in /  989.4 hPa NE 1.0 mph /  1.6 km/h 5.0 mph /  8 km/h 94 % 0.00 in /  0 mm 77 W/m2
12:12 39.7 °F /  4.3 °C 38.2 °F /  3.4 °C 29.23 in /  989.7 hPa NE 2.0 mph /  3.2 km/h 5.0 mph /  8 km/h 94 % 0.00 in /  0 mm 81 W/m2
12:16 39.7 °F /  4.3 °C 38.2 °F /  3.4 °C 29.23 in /  989.7 hPa NE 2.0 mph /  3.2 km/h 5.0 mph /  8 km/h 94 % 0.00 in /  0 mm 77 W/m2
12:21 39.7 °F /  4.3 °C 38.2 °F /  3.4 °C 29.23 in /  989.7 hPa ENE 1.0 mph /  1.6 km/h 5.0 mph /  8 km/h 94 % 0.00 in /  0 mm 83 W/m2
12:26 39.7 °F /  4.3 °C 38.2 °F /  3.4 °C 29.23 in /  989.7 hPa Calm   2.0 mph /  3.2 km/h 94 % 0.00 in /  0 mm 77 W/m2
12:31 39.9 °F /  4.4 °C 38.3 °F /  3.5 °C 29.23 in /  989.7 hPa North 1.0 mph /  1.6 km/h 4.0 mph /  6.4 km/h 94 % 0.00 in /  0 mm 54 W/m2
12:33 39.9 °F /  4.4 °C 38.3 °F /  3.5 °C 29.23 in /  989.7 hPa NNE 2.0 mph /  3.2 km/h 4.0 mph /  6.4 km/h 94 % 0.00 in /  0 mm 60 W/m2
12:38 39.9 °F /  4.4 °C 38.3 °F /  3.5 °C 29.23 in /  989.7 hPa North 1.0 mph /  1.6 km/h 5.0 mph /  8 km/h 94 % 0.00 in /  0 mm 77 W/m2
12:40 39.9 °F /  4.4 °C 38.3 °F /  3.5 °C 29.23 in /  989.7 hPa Calm   3.0 mph /  4.8 km/h 94 % 0.00 in /  0 mm 76 W/m2
12:45 40.1 °F /  4.5 °C 38.5 °F /  3.6 °C 29.23 in /  989.7 hPa NE 2.0 mph /  3.2 km/h 5.0 mph /  8 km/h 94 % 0.00 in /  0 mm 63 W/m2
12:47 40.1 °F /  4.5 °C 38.5 °F /  3.6 °C 29.23 in /  989.7 hPa North 1.0 mph /  1.6 km/h 6.0 mph /  9.7 km/h 94 % 0.00 in /  0 mm 47 W/m2
12:52 40.3 °F /  4.6 °C 38.7 °F /  3.7 °C 29.24 in /  990.1 hPa NNW 6.0 mph /  9.7 km/h 8.0 mph /  12.9 km/h 94 % 0.00 in /  0 mm 46 W/m2
12:54 40.3 °F /  4.6 °C 38.7 °F /  3.7 °C 29.24 in /  990.1 hPa North 5.0 mph /  8 km/h 8.0 mph /  12.9 km/h 94 % 0.00 in /  0 mm 63 W/m2
12:59 40.3 °F /  4.6 °C 38.7 °F /  3.7 °C 29.24 in /  990.1 hPa NNW 6.0 mph /  9.7 km/h 8.0 mph /  12.9 km/h 94 % 0.00 in /  0 mm 81 W/m2
13:04 40.1 °F /  4.5 °C 38.2 °F /  3.4 °C 29.24 in /  990.1 hPa NNW 3.0 mph /  4.8 km/h 8.0 mph /  12.9 km/h 93 % 0.00 in /  0 mm 74 W/m2
13:09 39.9 °F /  4.4 °C 38.1 °F /  3.4 °C 29.24 in /  990.1 hPa NNW 5.0 mph /  8 km/h 9.0 mph /  14.5 km/h 93 % 0.00 in /  0 mm 84 W/m2
13:12 39.9 °F /  4.4 °C 38.1 °F /  3.4 °C 29.24 in /  990.1 hPa NNW 5.0 mph /  8 km/h 9.0 mph /  14.5 km/h 93 % 0.00 in /  0 mm 84 W/m2
13:17 39.9 °F /  4.4 °C 38.1 °F /  3.4 °C 29.24 in /  990.1 hPa North 3.0 mph /  4.8 km/h 7.0 mph /  11.3 km/h 93 % 0.00 in /  0 mm 84 W/m2
13:22 39.9 °F /  4.4 °C 38.1 °F /  3.4 °C 29.25 in /  990.4 hPa North 2.0 mph /  3.2 km/h 4.0 mph /  6.4 km/h 93 % 0.00 in /  0 mm 77 W/m2
13:25 40.1 °F /  4.5 °C 38.2 °F /  3.4 °C 29.25 in /  990.4 hPa North 4.0 mph /  6.4 km/h 8.0 mph /  12.9 km/h 93 % 0.00 in /  0 mm 70 W/m2
13:30 40.1 °F /  4.5 °C 38.2 °F /  3.4 °C 29.25 in /  990.4 hPa NNW 3.0 mph /  4.8 km/h 6.0 mph /  9.7 km/h 93 % 0.00 in /  0 mm 67 W/m2
13:31 40.1 °F /  4.5 °C 38.2 °F /  3.4 °C 29.25 in /  990.4 hPa NNW 3.0 mph /  4.8 km/h 6.0 mph /  9.7 km/h 93 % 0.00 in /  0 mm 67 W/m2
13:36 40.3 °F /  4.6 °C 38.4 °F /  3.6 °C 29.25 in /  990.4 hPa NNW 4.0 mph /  6.4 km/h 8.0 mph /  12.9 km/h 93 % 0.00 in /  0 mm 62 W/m2
13:37 40.3 °F /  4.6 °C 38.4 °F /  3.6 °C 29.25 in /  990.4 hPa NNW 4.0 mph /  6.4 km/h 9.0 mph /  14.5 km/h 93 % 0.00 in /  0 mm 62 W/m2
13:42 40.3 °F /  4.6 °C 38.4 °F /  3.6 °C 29.26 in /  990.7 hPa NNW 3.0 mph /  4.8 km/h 7.0 mph /  11.3 km/h 93 % 0.00 in /  0 mm 54 W/m2
13:44 40.3 °F /  4.6 °C 38.4 °F /  3.6 °C 29.26 in /  990.7 hPa NNW 2.0 mph /  3.2 km/h 6.0 mph /  9.7 km/h 93 % 0.00 in /  0 mm 54 W/m2
13:47 40.3 °F /  4.6 °C 38.4 °F /  3.6 °C 29.26 in /  990.7 hPa NNW 4.0 mph /  6.4 km/h 8.0 mph /  12.9 km/h 93 % 0.00 in /  0 mm 63 W/m2
13:52 40.5 °F /  4.7 °C 38.6 °F /  3.7 °C 29.26 in /  990.7 hPa NNW 4.0 mph /  6.4 km/h 8.0 mph /  12.9 km/h 93 % 0.00 in /  0 mm 88 W/m2
13:58 40.5 °F /  4.7 °C 38.3 °F /  3.5 °C 29.26 in /  990.7 hPa NNW 4.0 mph /  6.4 km/h 6.0 mph /  9.7 km/h 92 % 0.00 in /  0 mm 146 W/m2
14:03 40.6 °F /  4.8 °C 38.5 °F /  3.6 °C 29.26 in /  990.7 hPa NW 2.0 mph /  3.2 km/h 7.0 mph /  11.3 km/h 92 % 0.00 in /  0 mm 98 W/m2
14:04 40.6 °F /  4.8 °C 38.5 °F /  3.6 °C 29.26 in /  990.7 hPa NNW 2.0 mph /  3.2 km/h 6.0 mph /  9.7 km/h 92 % 0.00 in /  0 mm 95 W/m2
14:09 40.8 °F /  4.9 °C 38.4 °F /  3.6 °C 29.26 in /  990.7 hPa NW 3.0 mph /  4.8 km/h 7.0 mph /  11.3 km/h 91 % 0.00 in /  0 mm 95 W/m2
14:13 40.8 °F /  4.9 °C 38.4 °F /  3.6 °C 29.27 in /  991.1 hPa NW 4.0 mph /  6.4 km/h 6.0 mph /  9.7 km/h 91 % 0.00 in /  0 mm 98 W/m2
14:14 40.8 °F /  4.9 °C 38.4 °F /  3.6 °C 29.27 in /  991.1 hPa NW 3.0 mph /  4.8 km/h 7.0 mph /  11.3 km/h 91 % 0.00 in /  0 mm 95 W/m2
14:19 41.0 °F /  5 °C 38.6 °F /  3.7 °C 29.27 in /  991.1 hPa NW 5.0 mph /  8 km/h 11.0 mph /  17.7 km/h 91 % 0.00 in /  0 mm 86 W/m2
14:20 41.0 °F /  5 °C 38.6 °F /  3.7 °C 29.27 in /  991.1 hPa NW 6.0 mph /  9.7 km/h 11.0 mph /  17.7 km/h 91 % 0.00 in /  0 mm 86 W/m2
14:22 41.0 °F /  5 °C 38.3 °F /  3.5 °C 29.27 in /  991.1 hPa NW 5.0 mph /  8 km/h 10.0 mph /  16.1 km/h 90 % 0.00 in /  0 mm 81 W/m2
14:27 41.0 °F /  5 °C 38.6 °F /  3.7 °C 29.27 in /  991.1 hPa NW 4.0 mph /  6.4 km/h 6.0 mph /  9.7 km/h 91 % 0.00 in /  0 mm 69 W/m2
14:33 41.2 °F /  5.1 °C 38.8 °F /  3.8 °C 29.28 in /  991.4 hPa NW 2.0 mph /  3.2 km/h 6.0 mph /  9.7 km/h 91 % 0.00 in /  0 mm 65 W/m2
14:38 41.2 °F /  5.1 °C 38.8 °F /  3.8 °C 29.28 in /  991.4 hPa NW 2.0 mph /  3.2 km/h 6.0 mph /  9.7 km/h 91 % 0.00 in /  0 mm 67 W/m2
14:39 41.2 °F /  5.1 °C 38.8 °F /  3.8 °C 29.28 in /  991.4 hPa NW 2.0 mph /  3.2 km/h 6.0 mph /  9.7 km/h 91 % 0.00 in /  0 mm 67 W/m2
14:45 41.2 °F /  5.1 °C 38.8 °F /  3.8 °C 29.28 in /  991.4 hPa NW 3.0 mph /  4.8 km/h 6.0 mph /  9.7 km/h 91 % 0.00 in /  0 mm 77 W/m2
14:46 41.2 °F /  5.1 °C 38.8 °F /  3.8 °C 29.28 in /  991.4 hPa NW 2.0 mph /  3.2 km/h 6.0 mph /  9.7 km/h 91 % 0.00 in /  0 mm 70 W/m2
14:51 41.2 °F /  5.1 °C 38.8 °F /  3.8 °C 29.28 in /  991.4 hPa NW 3.0 mph /  4.8 km/h 7.0 mph /  11.3 km/h 91 % 0.00 in /  0 mm 67 W/m2
14:56 41.4 °F /  5.2 °C 38.9 °F /  3.8 °C 29.28 in /  991.4 hPa NW 3.0 mph /  4.8 km/h 5.0 mph /  8 km/h 91 % 0.00 in /  0 mm 56 W/m2
14:58 41.2 °F /  5.1 °C 38.8 °F /  3.8 °C 29.28 in /  991.4 hPa NW 2.0 mph /  3.2 km/h 6.0 mph /  9.7 km/h 91 % 0.00 in /  0 mm 54 W/m2
15:03 41.4 °F /  5.2 °C 38.9 °F /  3.8 °C 29.29 in /  991.8 hPa NW 3.0 mph /  4.8 km/h 6.0 mph /  9.7 km/h 91 % 0.00 in /  0 mm 44 W/m2
15:07 41.4 °F /  5.2 °C 38.9 °F /  3.8 °C 29.29 in /  991.8 hPa WNW 3.0 mph /  4.8 km/h 6.0 mph /  9.7 km/h 91 % 0.00 in /  0 mm 35 W/m2
15:12 41.4 °F /  5.2 °C 38.6 °F /  3.7 °C 29.29 in /  991.8 hPa WNW 3.0 mph /  4.8 km/h 6.0 mph /  9.7 km/h 90 % 0.00 in /  0 mm 23 W/m2
15:17 41.4 °F /  5.2 °C 38.9 °F /  3.8 °C 29.29 in /  991.8 hPa WNW 4.0 mph /  6.4 km/h 6.0 mph /  9.7 km/h 91 % 0.00 in /  0 mm 21 W/m2
15:18 41.4 °F /  5.2 °C 38.9 °F /  3.8 °C 29.29 in /  991.8 hPa WNW 3.0 mph /  4.8 km/h 6.0 mph /  9.7 km/h 91 % 0.00 in /  0 mm 21 W/m2
15:23 41.4 °F /  5.2 °C 38.9 °F /  3.8 °C 29.30 in /  992.1 hPa WNW 3.0 mph /  4.8 km/h 6.0 mph /  9.7 km/h 91 % 0.00 in /  0 mm 19 W/m2
15:24 41.4 °F /  5.2 °C 38.9 °F /  3.8 °C 29.30 in /  992.1 hPa WNW 3.0 mph /  4.8 km/h 6.0 mph /  9.7 km/h 91 % 0.00 in /  0 mm 19 W/m2
15:29 41.5 °F /  5.3 °C 38.8 °F /  3.8 °C 29.30 in /  992.1 hPa NW 2.0 mph /  3.2 km/h 5.0 mph /  8 km/h 90 % 0.00 in /  0 mm 18 W/m2
15:30 41.4 °F /  5.2 °C 38.6 °F /  3.7 °C 29.30 in /  992.1 hPa NW 2.0 mph /  3.2 km/h 6.0 mph /  9.7 km/h 90 % 0.00 in /  0 mm 16 W/m2
15:35 41.4 °F /  5.2 °C 38.6 °F /  3.7 °C 29.30 in /  992.1 hPa NW 1.0 mph /  1.6 km/h 4.0 mph /  6.4 km/h 90 % 0.00 in /  0 mm 16 W/m2
15:40 41.4 °F /  5.2 °C 38.6 °F /  3.7 °C 29.30 in /  992.1 hPa WNW 1.0 mph /  1.6 km/h 6.0 mph /  9.7 km/h 90 % 0.00 in /  0 mm 12 W/m2
15:41 41.4 °F /  5.2 °C 38.6 °F /  3.7 °C 29.30 in /  992.1 hPa WNW 2.0 mph /  3.2 km/h 6.0 mph /  9.7 km/h 90 % 0.00 in /  0 mm 12 W/m2
15:48 41.2 °F /  5.1 °C 38.5 °F /  3.6 °C 29.31 in /  992.4 hPa NW 2.0 mph /  3.2 km/h 4.0 mph /  6.4 km/h 90 % 0.00 in /  0 mm 7 W/m2
15:54 41.2 °F /  5.1 °C 38.5 °F /  3.6 °C 29.31 in /  992.4 hPa NW 2.0 mph /  3.2 km/h 6.0 mph /  9.7 km/h 90 % 0.00 in /  0 mm 5 W/m2
15:59 41.0 °F /  5 °C 38.0 °F /  3.3 °C 29.31 in /  992.4 hPa NW 2.0 mph /  3.2 km/h 5.0 mph /  8 km/h 89 % 0.00 in /  0 mm 0 W/m2
16:00 41.0 °F /  5 °C 38.0 °F /  3.3 °C 29.32 in /  992.8 hPa NW 2.0 mph /  3.2 km/h 5.0 mph /  8 km/h 89 % 0.00 in /  0 mm 0 W/m2
16:05 40.8 °F /  4.9 °C 37.8 °F /  3.2 °C 29.32 in /  992.8 hPa NW 2.0 mph /  3.2 km/h 5.0 mph /  8 km/h 89 % 0.00 in /  0 mm 0 W/m2
16:10 40.8 °F /  4.9 °C 37.8 °F /  3.2 °C 29.32 in /  992.8 hPa WNW 3.0 mph /  4.8 km/h 6.0 mph /  9.7 km/h 89 % 0.00 in /  0 mm 0 W/m2
16:15 40.6 °F /  4.8 °C 37.7 °F /  3.2 °C 29.32 in /  992.8 hPa WNW 2.0 mph /  3.2 km/h 6.0 mph /  9.7 km/h 89 % 0.00 in /  0 mm 0 W/m2
16:16 40.6 °F /  4.8 °C 37.7 °F /  3.2 °C 29.32 in /  992.8 hPa WNW 2.0 mph /  3.2 km/h 6.0 mph /  9.7 km/h 89 % 0.00 in /  0 mm 0 W/m2
16:21 40.5 °F /  4.7 °C 37.5 °F /  3.1 °C 29.32 in /  992.8 hPa WNW 3.0 mph /  4.8 km/h 5.0 mph /  8 km/h 89 % 0.00 in /  0 mm 0 W/m2
16:32 40.3 °F /  4.6 °C 37.3 °F /  2.9 °C 29.33 in /  993.1 hPa NW 3.0 mph /  4.8 km/h 4.0 mph /  6.4 km/h 89 % 0.00 in /  0 mm 0 W/m2
16:37 39.9 °F /  4.4 °C 36.9 °F /  2.7 °C 29.33 in /  993.1 hPa NW 3.0 mph /  4.8 km/h 6.0 mph /  9.7 km/h 89 % 0.00 in /  0 mm 0 W/m2
16:42 39.9 °F /  4.4 °C 36.9 °F /  2.7 °C 29.33 in /  993.1 hPa NW 1.0 mph /  1.6 km/h 5.0 mph /  8 km/h 89 % 0.00 in /  0 mm 0 W/m2
16:47 39.7 °F /  4.3 °C 36.5 °F /  2.5 °C 29.34 in /  993.5 hPa NW 3.0 mph /  4.8 km/h 5.0 mph /  8 km/h 88 % 0.00 in /  0 mm 0 W/m2
16:56 39.6 °F /  4.2 °C 36.3 °F /  2.4 °C 29.34 in /  993.5 hPa NW 3.0 mph /  4.8 km/h 6.0 mph /  9.7 km/h 88 % 0.00 in /  0 mm 0 W/m2
16:59 39.4 °F /  4.1 °C 36.4 °F /  2.4 °C 29.34 in /  993.5 hPa WNW 4.0 mph /  6.4 km/h 8.0 mph /  12.9 km/h 89 % 0.00 in /  0 mm 0 W/m2
17:04 39.4 °F /  4.1 °C 36.4 °F /  2.4 °C 29.34 in /  993.5 hPa WNW 5.0 mph /  8 km/h 9.0 mph /  14.5 km/h 89 % 0.00 in /  0 mm 0 W/m2
17:05 39.6 °F /  4.2 °C 36.6 °F /  2.6 °C 29.34 in /  993.5 hPa WNW 5.0 mph /  8 km/h 9.0 mph /  14.5 km/h 89 % 0.00 in /  0 mm 0 W/m2
17:10 39.4 °F /  4.1 °C 36.4 °F /  2.4 °C 29.35 in /  993.8 hPa West 2.0 mph /  3.2 km/h 5.0 mph /  8 km/h 89 % 0.00 in /  0 mm 0 W/m2
17:12 39.4 °F /  4.1 °C 36.4 °F /  2.4 °C 29.35 in /  993.8 hPa Calm   2.0 mph /  3.2 km/h 89 % 0.00 in /  0 mm 0 W/m2
17:17 39.2 °F /  4 °C 36.2 °F /  2.3 °C 29.35 in /  993.8 hPa Calm     89 % 0.00 in /  0 mm 0 W/m2
17:20 39.0 °F /  3.9 °C 36.1 °F /  2.3 °C 29.36 in /  994.1 hPa West 1.0 mph /  1.6 km/h 4.0 mph /  6.4 km/h 89 % 0.00 in /  0 mm 0 W/m2
17:25 38.8 °F /  3.8 °C 35.9 °F /  2.2 °C 29.36 in /  994.1 hPa West 1.0 mph /  1.6 km/h 2.0 mph /  3.2 km/h 89 % 0.00 in /  0 mm 0 W/m2
17:28 38.8 °F /  3.8 °C 35.9 °F /  2.2 °C 29.36 in /  994.1 hPa Calm   2.0 mph /  3.2 km/h 89 % 0.00 in /  0 mm 0 W/m2
17:33 38.7 °F /  3.7 °C 35.7 °F /  2.1 °C 29.36 in /  994.1 hPa Calm   2.0 mph /  3.2 km/h 89 % 0.00 in /  0 mm 0 W/m2
17:37 38.5 °F /  3.6 °C 35.5 °F /  1.9 °C 29.36 in /  994.1 hPa Calm   1.0 mph /  1.6 km/h 89 % 0.00 in /  0 mm 0 W/m2
17:42 38.1 °F /  3.4 °C 35.2 °F /  1.8 °C 29.36 in /  994.1 hPa West 2.0 mph /  3.2 km/h 4.0 mph /  6.4 km/h 89 % 0.00 in /  0 mm 0 W/m2
17:43 38.1 °F /  3.4 °C 35.2 °F /  1.8 °C 29.36 in /  994.1 hPa West 2.0 mph /  3.2 km/h 4.0 mph /  6.4 km/h 89 % 0.00 in /  0 mm 0 W/m2
17:48 37.9 °F /  3.3 °C 35.0 °F /  1.7 °C 29.37 in /  994.5 hPa West 2.0 mph /  3.2 km/h 4.0 mph /  6.4 km/h 89 % 0.00 in /  0 mm 0 W/m2
17:53 37.8 °F /  3.2 °C 35.1 °F /  1.7 °C 29.37 in /  994.5 hPa West 2.0 mph /  3.2 km/h 5.0 mph /  8 km/h 90 % 0.00 in /  0 mm 0 W/m2
17:55 37.6 °F /  3.1 °C 34.9 °F /  1.6 °C 29.37 in /  994.5 hPa West 2.0 mph /  3.2 km/h 4.0 mph /  6.4 km/h 90 % 0.00 in /  0 mm 0 W/m2
18:00 37.6 °F /  3.1 °C 34.9 °F /  1.6 °C 29.38 in /  994.8 hPa West 3.0 mph /  4.8 km/h 4.0 mph /  6.4 km/h 90 % 0.00 in /  0 mm 0 W/m2
18:02 37.6 °F /  3.1 °C 34.9 °F /  1.6 °C 29.38 in /  994.8 hPa West 3.0 mph /  4.8 km/h 5.0 mph /  8 km/h 90 % 0.00 in /  0 mm 0 W/m2
18:07 37.4 °F /  3 °C 34.7 °F /  1.5 °C 29.38 in /  994.8 hPa WNW 4.0 mph /  6.4 km/h 6.0 mph /  9.7 km/h 90 % 0.00 in /  0 mm 0 W/m2
18:09 37.4 °F /  3 °C 35.0 °F /  1.7 °C 29.38 in /  994.8 hPa WNW 4.0 mph /  6.4 km/h 7.0 mph /  11.3 km/h 91 % 0.00 in /  0 mm 0 W/m2
18:14 37.4 °F /  3 °C 35.0 °F /  1.7 °C 29.38 in /  994.8 hPa WNW 3.0 mph /  4.8 km/h 5.0 mph /  8 km/h 91 % 0.00 in /  0 mm 0 W/m2
18:17 37.4 °F /  3 °C 35.0 °F /  1.7 °C 29.38 in /  994.8 hPa WNW 3.0 mph /  4.8 km/h 5.0 mph /  8 km/h 91 % 0.00 in /  0 mm 0 W/m2
18:22 37.2 °F /  2.9 °C 34.8 °F /  1.6 °C 29.38 in /  994.8 hPa WNW 3.0 mph /  4.8 km/h 6.0 mph /  9.7 km/h 91 % 0.00 in /  0 mm 0 W/m2
18:27 37.2 °F /  2.9 °C 34.8 °F /  1.6 °C 29.38 in /  994.8 hPa WNW 4.0 mph /  6.4 km/h 6.0 mph /  9.7 km/h 91 % 0.00 in /  0 mm 0 W/m2
18:28 37.2 °F /  2.9 °C 34.8 °F /  1.6 °C 29.38 in /  994.8 hPa WNW 4.0 mph /  6.4 km/h 6.0 mph /  9.7 km/h 91 % 0.00 in /  0 mm 0 W/m2
18:33 37.0 °F /  2.8 °C 34.7 °F /  1.5 °C 29.38 in /  994.8 hPa WNW 4.0 mph /  6.4 km/h 6.0 mph /  9.7 km/h 91 % 0.00 in /  0 mm 0 W/m2
18:38 36.9 °F /  2.7 °C 34.5 °F /  1.4 °C 29.39 in /  995.1 hPa WNW 3.0 mph /  4.8 km/h 6.0 mph /  9.7 km/h 91 % 0.00 in /  0 mm 0 W/m2
18:44 36.9 °F /  2.7 °C 34.8 °F /  1.6 °C 29.39 in /  995.1 hPa NW 4.0 mph /  6.4 km/h 6.0 mph /  9.7 km/h 92 % 0.00 in /  0 mm 0 W/m2
18:45 36.9 °F /  2.7 °C 34.8 °F /  1.6 °C 29.39 in /  995.1 hPa NW 3.0 mph /  4.8 km/h 6.0 mph /  9.7 km/h 92 % 0.00 in /  0 mm 0 W/m2
18:50 36.9 °F /  2.7 °C 34.8 °F /  1.6 °C 29.39 in /  995.1 hPa WNW 4.0 mph /  6.4 km/h 6.0 mph /  9.7 km/h 92 % 0.00 in /  0 mm 0 W/m2
18:55 36.9 °F /  2.7 °C 34.8 °F /  1.6 °C 29.39 in /  995.1 hPa NW 3.0 mph /  4.8 km/h 7.0 mph /  11.3 km/h 92 % 0.00 in /  0 mm 0 W/m2
18:56 36.9 °F /  2.7 °C 34.8 °F /  1.6 °C 29.39 in /  995.1 hPa NW 3.0 mph /  4.8 km/h 7.0 mph /  11.3 km/h 92 % 0.00 in /  0 mm 0 W/m2
19:01 36.9 °F /  2.7 °C 34.8 °F /  1.6 °C 29.40 in /  995.5 hPa WNW 3.0 mph /  4.8 km/h 6.0 mph /  9.7 km/h 92 % 0.00 in /  0 mm 0 W/m2
19:03 36.9 °F /  2.7 °C 34.8 °F /  1.6 °C 29.40 in /  995.5 hPa WNW 3.0 mph /  4.8 km/h 5.0 mph /  8 km/h 92 % 0.00 in /  0 mm 0 W/m2
19:06 36.9 °F /  2.7 °C 34.8 °F /  1.6 °C 29.40 in /  995.5 hPa WNW 1.0 mph /  1.6 km/h 6.0 mph /  9.7 km/h 92 % 0.00 in /  0 mm 0 W/m2
19:10 36.7 °F /  2.6 °C 34.6 °F /  1.4 °C 29.40 in /  995.5 hPa Calm   1.0 mph /  1.6 km/h 92 % 0.00 in /  0 mm 0 W/m2
19:15 36.5 °F /  2.5 °C 34.1 °F /  1.2 °C 29.41 in /  995.8 hPa Calm   1.0 mph /  1.6 km/h 91 % 0.00 in /  0 mm 0 W/m2
19:18 36.3 °F /  2.4 °C 33.9 °F /  1.1 °C 29.40 in /  995.5 hPa Calm     91 % 0.00 in /  0 mm 0 W/m2
19:21 36.1 °F /  2.3 °C 33.8 °F /  1 °C 29.41 in /  995.8 hPa Calm     91 % 0.00 in /  0 mm 0 W/m2
19:26 35.8 °F /  2.1 °C 33.4 °F /  0.8 °C 29.41 in /  995.8 hPa Calm     91 % 0.00 in /  0 mm 0 W/m2
19:29 35.6 °F /  2 °C 33.2 °F /  0.7 °C 29.41 in /  995.8 hPa WNW 1.0 mph /  1.6 km/h 2.0 mph /  3.2 km/h 91 % 0.00 in /  0 mm 0 W/m2
19:33 35.4 °F /  1.9 °C 33.1 °F /  0.6 °C 29.41 in /  995.8 hPa Calm   2.0 mph /  3.2 km/h 91 % 0.00 in /  0 mm 0 W/m2
19:34 35.4 °F /  1.9 °C 33.1 °F /  0.6 °C 29.41 in /  995.8 hPa WNW 1.0 mph /  1.6 km/h 2.0 mph /  3.2 km/h 91 % 0.00 in /  0 mm 0 W/m2
19:39 35.2 °F /  1.8 °C 33.1 °F /  0.6 °C 29.41 in /  995.8 hPa WNW 2.0 mph /  3.2 km/h 4.0 mph /  6.4 km/h 92 % 0.00 in /  0 mm 0 W/m2
19:44 35.1 °F /  1.7 °C 33.0 °F /  0.6 °C 29.42 in /  996.2 hPa WNW 1.0 mph /  1.6 km/h 2.0 mph /  3.2 km/h 92 % 0.00 in /  0 mm 0 W/m2
19:47 35.1 °F /  1.7 °C 33.0 °F /  0.6 °C 29.42 in /  996.2 hPa Calm     92 % 0.00 in /  0 mm 0 W/m2
19:52 34.9 °F /  1.6 °C 32.8 °F /  0.4 °C 29.42 in /  996.2 hPa Calm     92 % 0.00 in /  0 mm 0 W/m2
20:02 34.5 °F /  1.4 °C 32.4 °F /  0.2 °C 29.43 in /  996.5 hPa Calm     92 % 0.00 in /  0 mm 0 W/m2
20:07 34.3 °F /  1.3 °C 32.5 °F /  0.3 °C 29.43 in /  996.5 hPa Calm     93 % 0.00 in /  0 mm 0 W/m2
20:08 34.3 °F /  1.3 °C 32.5 °F /  0.3 °C 29.43 in /  996.5 hPa Calm     93 % 0.00 in /  0 mm 0 W/m2
20:09 34.3 °F /  1.3 °C 32.5 °F /  0.3 °C 29.43 in /  996.5 hPa Calm     93 % 0.00 in /  0 mm 0 W/m2
20:14 34.3 °F /  1.3 °C 32.5 °F /  0.3 °C 29.44 in /  996.8 hPa Calm     93 % 0.00 in /  0 mm 0 W/m2
20:19 34.3 °F /  1.3 °C 32.5 °F /  0.3 °C 29.44 in /  996.8 hPa Calm     93 % 0.00 in /  0 mm 0 W/m2
20:20 34.3 °F /  1.3 °C 32.5 °F /  0.3 °C 29.44 in /  996.8 hPa Calm     93 % 0.00 in /  0 mm 0 W/m2
20:25 34.2 °F /  1.2 °C 32.3 °F /  0.2 °C 29.44 in /  996.8 hPa Calm   2.0 mph /  3.2 km/h 93 % 0.00 in /  0 mm 0 W/m2
20:30 34.2 °F /  1.2 °C 32.3 °F /  0.2 °C 29.44 in /  996.8 hPa WNW 1.0 mph /  1.6 km/h 3.0 mph /  4.8 km/h 93 % 0.00 in /  0 mm 0 W/m2
20:37 34.3 °F /  1.3 °C 32.8 °F /  0.4 °C 29.45 in /  997.2 hPa WNW 3.0 mph /  4.8 km/h 5.0 mph /  8 km/h 94 % 0.00 in /  0 mm 0 W/m2
20:38 34.3 °F /  1.3 °C 32.8 °F /  0.4 °C 29.45 in /  997.2 hPa WNW 3.0 mph /  4.8 km/h 5.0 mph /  8 km/h 94 % 0.00 in /  0 mm 0 W/m2
20:43 34.5 °F /  1.4 °C 33.0 °F /  0.6 °C 29.45 in /  997.2 hPa WNW 3.0 mph /  4.8 km/h 5.0 mph /  8 km/h 94 % 0.00 in /  0 mm 0 W/m2
20:48 34.5 °F /  1.4 °C 33.0 °F /  0.6 °C 29.45 in /  997.2 hPa WNW 4.0 mph /  6.4 km/h 5.0 mph /  8 km/h 94 % 0.00 in /  0 mm 0 W/m2
20:50 34.5 °F /  1.4 °C 33.0 °F /  0.6 °C 29.45 in /  997.2 hPa WNW 4.0 mph /  6.4 km/h 6.0 mph /  9.7 km/h 94 % 0.00 in /  0 mm 0 W/m2
20:55 34.5 °F /  1.4 °C 33.0 °F /  0.6 °C 29.46 in /  997.5 hPa WNW 4.0 mph /  6.4 km/h 6.0 mph /  9.7 km/h 94 % 0.00 in /  0 mm 0 W/m2
21:01 34.9 °F /  1.6 °C 33.3 °F /  0.7 °C 29.46 in /  997.5 hPa WNW 4.0 mph /  6.4 km/h 6.0 mph /  9.7 km/h 94 % 0.00 in /  0 mm 0 W/m2
21:07 35.1 °F /  1.7 °C 33.8 °F /  1 °C 29.46 in /  997.5 hPa NW 4.0 mph /  6.4 km/h 7.0 mph /  11.3 km/h 95 % 0.00 in /  0 mm 0 W/m2
21:12 35.4 °F /  1.9 °C 34.1 °F /  1.2 °C 29.46 in /  997.5 hPa NW 4.0 mph /  6.4 km/h 6.0 mph /  9.7 km/h 95 % 0.00 in /  0 mm 0 W/m2
21:17 35.6 °F /  2 °C 34.3 °F /  1.3 °C 29.47 in /  997.9 hPa NW 2.0 mph /  3.2 km/h 5.0 mph /  8 km/h 95 % 0.00 in /  0 mm 0 W/m2
21:23 35.6 °F /  2 °C 34.3 °F /  1.3 °C 29.47 in /  997.9 hPa NW 4.0 mph /  6.4 km/h 6.0 mph /  9.7 km/h 95 % 0.00 in /  0 mm 0 W/m2
21:28 35.8 °F /  2.1 °C 34.5 °F /  1.4 °C 29.47 in /  997.9 hPa NW 4.0 mph /  6.4 km/h 7.0 mph /  11.3 km/h 95 % 0.00 in /  0 mm 0 W/m2
21:30 35.6 °F /  2 °C 34.3 °F /  1.3 °C 29.47 in /  997.9 hPa NW 4.0 mph /  6.4 km/h 7.0 mph /  11.3 km/h 95 % 0.00 in /  0 mm 0 W/m2
21:32 35.8 °F /  2.1 °C 34.5 °F /  1.4 °C 29.47 in /  997.9 hPa WNW 5.0 mph /  8 km/h 7.0 mph /  11.3 km/h 95 % 0.00 in /  0 mm 0 W/m2
21:37 35.8 °F /  2.1 °C 34.5 °F /  1.4 °C 29.47 in /  997.9 hPa WNW 3.0 mph /  4.8 km/h 6.0 mph /  9.7 km/h 95 % 0.00 in /  0 mm 0 W/m2
21:42 36.0 °F /  2.2 °C 34.7 °F /  1.5 °C 29.48 in /  998.2 hPa NW 4.0 mph /  6.4 km/h 6.0 mph /  9.7 km/h 95 % 0.00 in /  0 mm 0 W/m2
21:47 36.0 °F /  2.2 °C 34.7 °F /  1.5 °C 29.48 in /  998.2 hPa NW 5.0 mph /  8 km/h 7.0 mph /  11.3 km/h 95 % 0.00 in /  0 mm 0 W/m2
21:52 36.1 °F /  2.3 °C 34.8 °F /  1.6 °C 29.48 in /  998.2 hPa NW 3.0 mph /  4.8 km/h 5.0 mph /  8 km/h 95 % 0.00 in /  0 mm 0 W/m2
21:58 36.1 °F /  2.3 °C 34.8 °F /  1.6 °C 29.49 in /  998.5 hPa WNW 3.0 mph /  4.8 km/h 6.0 mph /  9.7 km/h 95 % 0.00 in /  0 mm 0 W/m2
21:59 36.1 °F /  2.3 °C 34.8 °F /  1.6 °C 29.49 in /  998.5 hPa WNW 3.0 mph /  4.8 km/h 6.0 mph /  9.7 km/h 95 % 0.00 in /  0 mm 0 W/m2
22:02 36.1 °F /  2.3 °C 34.8 °F /  1.6 °C 29.49 in /  998.5 hPa NW 4.0 mph /  6.4 km/h 6.0 mph /  9.7 km/h 95 % 0.00 in /  0 mm 0 W/m2
22:07 36.0 °F /  2.2 °C 34.4 °F /  1.3 °C 29.49 in /  998.5 hPa NW 4.0 mph /  6.4 km/h 6.0 mph /  9.7 km/h 94 % 0.00 in /  0 mm 0 W/m2
22:10 36.0 °F /  2.2 °C 34.7 °F /  1.5 °C 29.49 in /  998.5 hPa NW 4.0 mph /  6.4 km/h 6.0 mph /  9.7 km/h 95 % 0.00 in /  0 mm 0 W/m2
22:15 36.0 °F /  2.2 °C 34.7 °F /  1.5 °C 29.50 in /  998.9 hPa NW 2.0 mph /  3.2 km/h 4.0 mph /  6.4 km/h 95 % 0.00 in /  0 mm 0 W/m2
22:16 36.0 °F /  2.2 °C 34.7 °F /  1.5 °C 29.50 in /  998.9 hPa NW 2.0 mph /  3.2 km/h 4.0 mph /  6.4 km/h 95 % 0.00 in /  0 mm 0 W/m2
22:21 35.8 °F /  2.1 °C 34.2 °F /  1.2 °C 29.50 in /  998.9 hPa Calm   2.0 mph /  3.2 km/h 94 % 0.00 in /  0 mm 0 W/m2
22:26 35.2 °F /  1.8 °C 33.4 °F /  0.8 °C 29.50 in /  998.9 hPa Calm     93 % 0.00 in /  0 mm 0 W/m2
22:31 34.9 °F /  1.6 °C 33.1 °F /  0.6 °C 29.50 in /  998.9 hPa Calm     93 % 0.00 in /  0 mm 0 W/m2
22:34 34.5 °F /  1.4 °C 32.7 °F /  0.4 °C 29.51 in /  999.2 hPa Calm     93 % 0.00 in /  0 mm 0 W/m2
22:39 34.3 °F /  1.3 °C 32.8 °F /  0.4 °C 29.51 in /  999.2 hPa NW 2.0 mph /  3.2 km/h 4.0 mph /  6.4 km/h 94 % 0.00 in /  0 mm 0 W/m2
22:44 34.5 °F /  1.4 °C 33.0 °F /  0.6 °C 29.51 in /  999.2 hPa NW 1.0 mph /  1.6 km/h 2.0 mph /  3.2 km/h 94 % 0.00 in /  0 mm 0 W/m2
22:48 34.5 °F /  1.4 °C 33.2 °F /  0.7 °C 29.51 in /  999.2 hPa Calm     95 % 0.00 in /  0 mm 0 W/m2
22:53 34.7 °F /  1.5 °C 33.4 °F /  0.8 °C 29.52 in /  999.5 hPa Calm     95 % 0.00 in /  0 mm 0 W/m2
23:04 34.3 °F /  1.3 °C 32.8 °F /  0.4 °C 29.52 in /  999.5 hPa Calm     94 % 0.00 in /  0 mm 0 W/m2
23:07 34.3 °F /  1.3 °C 32.8 °F /  0.4 °C 29.52 in /  999.5 hPa Calm     94 % 0.00 in /  0 mm 0 W/m2
23:12 34.3 °F /  1.3 °C 33.1 °F /  0.6 °C 29.53 in /  999.9 hPa Calm     95 % 0.00 in /  0 mm 0 W/m2
23:14 34.3 °F /  1.3 °C 33.1 °F /  0.6 °C 29.53 in /  999.9 hPa Calm   4.0 mph /  6.4 km/h 95 % 0.00 in /  0 mm 0 W/m2
23:17 34.3 °F /  1.3 °C 33.1 °F /  0.6 °C 29.52 in /  999.5 hPa NW 2.0 mph /  3.2 km/h 4.0 mph /  6.4 km/h 95 % 0.00 in /  0 mm 0 W/m2
23:22 34.3 °F /  1.3 °C 33.1 °F /  0.6 °C 29.53 in /  999.9 hPa Calm   1.0 mph /  1.6 km/h 95 % 0.00 in /  0 mm 0 W/m2
23:24 34.5 °F /  1.4 °C 33.2 °F /  0.7 °C 29.53 in /  999.9 hPa NW 1.0 mph /  1.6 km/h 2.0 mph /  3.2 km/h 95 % 0.00 in /  0 mm 0 W/m2
23:29 34.5 °F /  1.4 °C 33.2 °F /  0.7 °C 29.53 in /  999.9 hPa NW 1.0 mph /  1.6 km/h 5.0 mph /  8 km/h 95 % 0.00 in /  0 mm 0 W/m2
23:30 34.5 °F /  1.4 °C 33.2 °F /  0.7 °C 29.53 in /  999.9 hPa NW 1.0 mph /  1.6 km/h 5.0 mph /  8 km/h 95 % 0.00 in /  0 mm 0 W/m2
23:35 34.9 °F /  1.6 °C 33.6 °F /  0.9 °C 29.54 in /  1000.2 hPa NW 1.0 mph /  1.6 km/h 4.0 mph /  6.4 km/h 95 % 0.00 in /  0 mm 0 W/m2
23:41 35.1 °F /  1.7 °C 33.8 °F /  1 °C 29.54 in /  1000.2 hPa Calm     95 % 0.00 in /  0 mm 0 W/m2
23:45 35.1 °F /  1.7 °C 33.8 °F /  1 °C 29.54 in /  1000.2 hPa Calm   2.0 mph /  3.2 km/h 95 % 0.00 in /  0 mm 0 W/m2
23:50 35.1 °F /  1.7 °C 33.8 °F /  1 °C 29.54 in /  1000.2 hPa NW 2.0 mph /  3.2 km/h 5.0 mph /  8 km/h 95 % 0.00 in /  0 mm 0 W/m2
23:51 35.1 °F /  1.7 °C 33.8 °F /  1 °C 29.54 in /  1000.2 hPa NW 3.0 mph /  4.8 km/h 5.0 mph /  8 km/h 95 % 0.00 in /  0 mm 0 W/m2
23:56 35.2 °F /  1.8 °C 34.0 °F /  1.1 °C 29.54 in /  1000.2 hPa NW 2.0 mph /  3.2 km/h 6.0 mph /  9.7 km/h 95 % 0.00 in /  0 mm 0 W/m2
23:59 35.4 °F /  1.9 °C 34.4 °F /  1.3 °C 29.54 in /  1000.2 hPa NW 4.0 mph /  6.4 km/h 7.0 mph /  11.3 km/h 96 % 0.00 in /  0 mm 0 W/m2
Delerius-Weather
Compliments of Weather Underground - 2.75 mb

Data updates at regular intervals.